Robertsdale, Indiana
Current Conditions -  °F | °C
As of 9:45 AM on Friday 24 Oct 2014 (Local Time) from KGYY Reporting Station
Broken Clouds Broken Clouds  
Wind Chill: 55°   Ceiling: 3100
Heat Index: 55°   Visibility: 10mi
Dew Point: 46°   Wind: 3mph
Humidity: 72%   Direction: 170°S
Pressure: 30.07"   Gusts: NA
Location:  41.6768°N, 87.5007°W
Report Text: KGYY 241445Z 17003KT 10SM BKN031 13/08 A3007
Loading
Personal Weather Stations






























Interactive Weather Map
Tropical Storm Tracking
New forecast layout! Learn more

10-Day Weather Forecast

Advertisements
Track Severe Weather on mobile